sensor_id;sensor_type;location;lat;lon;timestamp;pressure;altitude;pressure_sealevel;temperature;humidity
13952;BME280;39535;52.192;9.886;2022-12-07T00:01:29;100275.75;;;3.86;100.00
13952;BME280;39535;52.192;9.886;2022-12-07T00:03:58;100282.69;;;3.92;100.00
13952;BME280;39535;52.192;9.886;2022-12-07T00:06:30;100293.78;;;3.77;100.00
13952;BME280;39535;52.192;9.886;2022-12-07T00:08:56;100286.03;;;3.78;100.00
13952;BME280;39535;52.192;9.886;2022-12-07T00:11:23;100280.88;;;3.75;100.00
13952;BME280;39535;52.192;9.886;2022-12-07T00:13:53;100267.06;;;3.69;100.00
13952;BME280;39535;52.192;9.886;2022-12-07T00:16:22;100248.94;;;3.64;100.00
13952;BME280;39535;52.192;9.886;2022-12-07T00:18:49;100233.50;;;3.70;100.00
13952;BME280;39535;52.192;9.886;2022-12-07T00:21:18;100226.63;;;3.72;100.00
13952;BME280;39535;52.192;9.886;2022-12-07T00:23:46;100222.28;;;3.64;100.00
13952;BME280;39535;52.192;9.886;2022-12-07T00:26:15;100217.13;;;3.64;100.00
13952;BME280;39535;52.192;9.886;2022-12-07T00:28:45;100218.91;;;3.74;100.00
13952;BME280;39535;52.192;9.886;2022-12-07T00:31:14;100214.56;;;3.70;100.00
13952;BME280;39535;52.192;9.886;2022-12-07T00:33:41;100212.84;;;3.66;100.00
13952;BME280;39535;52.192;9.886;2022-12-07T00:36:09;100205.97;;;3.72;100.00
13952;BME280;39535;52.192;9.886;2022-12-07T00:41:06;100211.19;;;3.82;100.00
13952;BME280;39535;52.192;9.886;2022-12-07T00:43:32;100218.06;;;3.75;100.00
13952;BME280;39535;52.192;9.886;2022-12-07T00:45:59;100212.94;;;3.86;100.00
13952;BME280;39535;52.192;9.886;2022-12-07T00:48:27;100213.81;;;3.91;100.00
13952;BME280;39535;52.192;9.886;2022-12-07T00:50:53;100214.69;;;3.91;100.00
13952;BME280;39535;52.192;9.886;2022-12-07T00:53:20;100219.81;;;3.88;100.00
13952;BME280;39535;52.192;9.886;2022-12-07T00:55:46;100219.00;;;3.94;100.00
13952;BME280;39535;52.192;9.886;2022-12-07T00:58:13;100217.28;;;3.94;100.00
13952;BME280;39535;52.192;9.886;2022-12-07T01:00:41;100222.47;;;4.02;100.00
13952;BME280;39535;52.192;9.886;2022-12-07T01:03:10;100224.97;;;3.84;100.00
13952;BME280;39535;52.192;9.886;2022-12-07T01:05:39;100215.34;;;3.56;100.00
13952;BME280;39535;52.192;9.886;2022-12-07T01:08:06;100188.69;;;3.53;100.00
13952;BME280;39535;52.192;9.886;2022-12-07T01:10:32;100168.06;;;3.59;100.00
13952;BME280;39535;52.192;9.886;2022-12-07T01:12:59;100161.25;;;3.72;100.00
13952;BME280;39535;52.192;9.886;2022-12-07T01:15:26;100161.13;;;3.46;100.00
13952;BME280;39535;52.192;9.886;2022-12-07T01:17:53;100144.84;;;3.64;100.00
13952;BME280;39535;52.192;9.886;2022-12-07T01:20:19;100139.66;;;3.56;100.00
13952;BME280;39535;52.192;9.886;2022-12-07T01:22:47;100143.16;;;3.70;100.00
13952;BME280;39535;52.192;9.886;2022-12-07T01:25:14;100143.19;;;3.80;100.00
13952;BME280;39535;52.192;9.886;2022-12-07T01:27:41;100153.53;;;3.81;100.00
13952;BME280;39535;52.192;9.886;2022-12-07T01:30:10;100156.09;;;3.80;100.00
13952;BME280;39535;52.192;9.886;2022-12-07T01:32:36;100151.75;;;3.66;100.00
13952;BME280;39535;52.192;9.886;2022-12-07T01:35:04;100142.31;;;3.71;100.00
13952;BME280;39535;52.192;9.886;2022-12-07T01:37:34;100137.19;;;3.82;100.00
13952;BME280;39535;52.192;9.886;2022-12-07T01:40:02;100144.03;;;3.69;100.00
13952;BME280;39535;52.192;9.886;2022-12-07T01:42:29;100132.88;;;3.78;100.00
13952;BME280;39535;52.192;9.886;2022-12-07T01:45:34;100140.56;;;3.70;100.00
13952;BME280;39535;52.192;9.886;2022-12-07T01:48:03;100136.31;;;3.80;100.00
13952;BME280;39535;52.192;9.886;2022-12-07T01:50:31;100138.06;;;3.87;100.00
13952;BME280;39535;52.192;9.886;2022-12-07T01:52:58;100142.34;;;3.77;100.00
13952;BME280;39535;52.192;9.886;2022-12-07T01:55:28;100131.16;;;3.77;100.00
13952;BME280;39535;52.192;9.886;2022-12-07T01:57:55;100118.19;;;3.66;100.00
13952;BME280;39535;52.192;9.886;2022-12-07T02:00:22;100115.66;;;3.77;100.00
13952;BME280;39535;52.192;9.886;2022-12-07T02:02:54;100111.31;;;3.65;100.00
13952;BME280;39535;52.192;9.886;2022-12-07T02:05:23;100106.13;;;3.61;100.00
13952;BME280;39535;52.192;9.886;2022-12-07T02:07:53;100100.94;;;3.51;100.00
13952;BME280;39535;52.192;9.886;2022-12-07T02:10:23;100075.97;;;3.50;100.00
13952;BME280;39535;52.192;9.886;2022-12-07T02:12:53;100068.22;;;3.49;100.00
13952;BME280;39535;52.192;9.886;2022-12-07T02:15:22;100066.53;;;3.55;100.00
13952;BME280;39535;52.192;9.886;2022-12-07T02:17:55;100050.13;;;3.38;100.00
13952;BME280;39535;52.192;9.886;2022-12-07T02:20:30;100047.56;;;3.40;100.00
13952;BME280;39535;52.192;9.886;2022-12-07T02:23:23;100039.84;;;3.44;100.00
13952;BME280;39535;52.192;9.886;2022-12-07T02:26:32;100042.41;;;3.38;100.00
13952;BME280;39535;52.192;9.886;2022-12-07T02:29:14;100036.34;;;3.31;100.00
13952;BME280;39535;52.192;9.886;2022-12-07T02:31:45;100031.19;;;3.31;100.00
13952;BME280;39535;52.192;9.886;2022-12-07T02:34:19;100019.19;;;3.40;100.00
13952;BME280;39535;52.192;9.886;2022-12-07T02:36:52;100018.31;;;3.31;100.00
13952;BME280;39535;52.192;9.886;2022-12-07T02:39:26;100019.19;;;3.38;100.00
13952;BME280;39535;52.192;9.886;2022-12-07T02:41:57;100017.41;;;3.26;100.00
13952;BME280;39535;52.192;9.886;2022-12-07T02:44:30;100016.56;;;3.26;100.00
13952;BME280;39535;52.192;9.886;2022-12-07T02:47:01;100022.56;;;3.22;100.00
13952;BME280;39535;52.192;9.886;2022-12-07T02:49:29;100019.16;;;3.27;100.00
13952;BME280;39535;52.192;9.886;2022-12-07T02:51:56;100022.53;;;3.15;100.00
13952;BME280;39535;52.192;9.886;2022-12-07T02:54:22;100024.25;;;3.13;100.00
13952;BME280;39535;52.192;9.886;2022-12-07T02:56:52;100010.47;;;3.14;100.00
13952;BME280;39535;52.192;9.886;2022-12-07T02:59:32;100020.84;;;3.22;100.00
13952;BME280;39535;52.192;9.886;2022-12-07T03:02:12;100023.38;;;3.13;100.00
13952;BME280;39535;52.192;9.886;2022-12-07T03:04:47;100025.91;;;3.02;100.00
13952;BME280;39535;52.192;9.886;2022-12-07T03:07:23;100026.78;;;3.04;100.00
13952;BME280;39535;52.192;9.886;2022-12-07T03:09:55;100026.72;;;2.92;100.00
13952;BME280;39535;52.192;9.886;2022-12-07T03:12:29;100024.13;;;2.92;100.00
13952;BME280;39535;52.192;9.886;2022-12-07T03:15:04;100027.53;;;2.86;100.00
13952;BME280;39535;52.192;9.886;2022-12-07T03:17:35;100029.31;;;3.01;100.00
13952;BME280;39535;52.192;9.886;2022-12-07T03:20:05;100037.94;;;3.00;100.00
13952;BME280;39535;52.192;9.886;2022-12-07T03:22:35;100033.63;;;3.02;100.00
13952;BME280;39535;52.192;9.886;2022-12-07T03:25:06;100043.09;;;3.03;100.00
13952;BME280;39535;52.192;9.886;2022-12-07T03:27:39;100043.97;;;3.08;100.00
13952;BME280;39535;52.192;9.886;2022-12-07T03:30:10;100047.44;;;3.07;100.00
13952;BME280;39535;52.192;9.886;2022-12-07T03:32:42;100057.75;;;3.07;100.00
13952;BME280;39535;52.192;9.886;2022-12-07T03:35:13;100054.31;;;3.11;100.00
13952;BME280;39535;52.192;9.886;2022-12-07T03:37:46;100064.56;;;3.01;100.00
13952;BME280;39535;52.192;9.886;2022-12-07T03:40:17;100058.59;;;3.06;100.00
13952;BME280;39535;52.192;9.886;2022-12-07T03:42:47;100055.13;;;3.00;100.00
13952;BME280;39535;52.192;9.886;2022-12-07T03:45:15;100054.28;;;3.02;100.00
13952;BME280;39535;52.192;9.886;2022-12-07T03:47:46;100059.38;;;2.96;100.00
13952;BME280;39535;52.192;9.886;2022-12-07T03:50:19;100061.16;;;3.05;100.00
13952;BME280;39535;52.192;9.886;2022-12-07T03:52:54;100066.31;;;3.06;100.00
13952;BME280;39535;52.192;9.886;2022-12-07T03:55:25;100075.81;;;3.12;100.00
13952;BME280;39535;52.192;9.886;2022-12-07T03:57:57;100066.34;;;3.12;100.00
13952;BME280;39535;52.192;9.886;2022-12-07T04:00:26;100071.47;;;3.06;100.00
13952;BME280;39535;52.192;9.886;2022-12-07T04:02:52;100079.19;;;3.05;100.00
13952;BME280;39535;52.192;9.886;2022-12-07T04:05:19;100078.34;;;3.06;100.00
13952;BME280;39535;52.192;9.886;2022-12-07T04:07:46;100086.09;;;3.09;100.00
13952;BME280;39535;52.192;9.886;2022-12-07T04:10:13;100086.16;;;3.20;100.00
13952;BME280;39535;52.192;9.886;2022-12-07T04:12:39;100093.88;;;3.15;100.00
13952;BME280;39535;52.192;9.886;2022-12-07T04:15:07;100096.41;;;3.10;100.00
13952;BME280;39535;52.192;9.886;2022-12-07T04:17:35;100098.84;;;2.87;100.00
13952;BME280;39535;52.192;9.886;2022-12-07T04:20:02;100081.66;;;2.82;100.00
13952;BME280;39535;52.192;9.886;2022-12-07T04:22:30;100075.59;;;2.78;100.00
13952;BME280;39535;52.192;9.886;2022-12-07T04:24:56;100067.94;;;2.86;100.00
13952;BME280;39535;52.192;9.886;2022-12-07T04:27:23;100063.63;;;2.89;100.00
13952;BME280;39535;52.192;9.886;2022-12-07T04:29:49;100064.53;;;2.99;100.00
13952;BME280;39535;52.192;9.886;2022-12-07T04:32:15;100065.38;;;2.95;100.00
13952;BME280;39535;52.192;9.886;2022-12-07T04:34:43;100068.91;;;3.08;100.00
13952;BME280;39535;52.192;9.886;2022-12-07T04:37:10;100068.94;;;3.12;100.00
13952;BME280;39535;52.192;9.886;2022-12-07T04:39:36;100064.53;;;2.99;100.00
13952;BME280;39535;52.192;9.886;2022-12-07T04:42:03;100062.88;;;3.04;100.00
13952;BME280;39535;52.192;9.886;2022-12-07T04:44:30;100066.31;;;3.06;100.00
13952;BME280;39535;52.192;9.886;2022-12-07T04:46:56;100071.50;;;3.09;100.00
13952;BME280;39535;52.192;9.886;2022-12-07T04:49:24;100068.00;;;2.98;100.00
13952;BME280;39535;52.192;9.886;2022-12-07T04:51:52;100065.38;;;2.95;100.00
13952;BME280;39535;52.192;9.886;2022-12-07T04:54:18;100049.06;;;2.94;100.00
13952;BME280;39535;52.192;9.886;2022-12-07T04:56:45;100049.91;;;2.95;100.00
13952;BME280;39535;52.192;9.886;2022-12-07T04:59:12;100050.81;;;2.98;100.00
13952;BME280;39535;52.192;9.886;2022-12-07T05:01:39;100040.50;;;3.00;100.00
13952;BME280;39535;52.192;9.886;2022-12-07T05:04:06;100043.09;;;3.00;100.00
13952;BME280;39535;52.192;9.886;2022-12-07T05:06:33;100036.22;;;3.02;100.00
13952;BME280;39535;52.192;9.886;2022-12-07T05:09:01;100053.41;;;3.02;100.00
13952;BME280;39535;52.192;9.886;2022-12-07T05:11:28;100052.53;;;2.98;100.00
13952;BME280;39535;52.192;9.886;2022-12-07T05:14:09;100059.38;;;2.96;100.00
13952;BME280;39535;52.192;9.886;2022-12-07T05:16:37;100065.38;;;2.92;100.00
13952;BME280;39535;52.192;9.886;2022-12-07T05:19:04;100064.53;;;2.94;100.00
13952;BME280;39535;52.192;9.886;2022-12-07T05:21:31;100065.38;;;2.95;100.00
13952;BME280;39535;52.192;9.886;2022-12-07T05:23:58;100069.66;;;2.91;100.00
13952;BME280;39535;52.192;9.886;2022-12-07T05:26:26;100066.19;;;2.85;100.00
13952;BME280;39535;52.192;9.886;2022-12-07T05:28:53;100056.72;;;2.85;100.00
13952;BME280;39535;52.192;9.886;2022-12-07T05:31:20;100055.03;;;2.89;100.00
13952;BME280;39535;52.192;9.886;2022-12-07T05:33:46;100054.22;;;2.94;100.00
13952;BME280;39535;52.192;9.886;2022-12-07T05:36:13;100054.16;;;2.87;100.00
13952;BME280;39535;52.192;9.886;2022-12-07T05:38:39;100049.84;;;2.83;100.00
13952;BME280;39535;52.192;9.886;2022-12-07T05:41:07;100057.59;;;2.87;100.00
13952;BME280;39535;52.192;9.886;2022-12-07T05:43:55;100060.28;;;3.03;100.00
13952;BME280;39535;52.192;9.886;2022-12-07T05:46:22;100060.25;;;2.98;100.00
13952;BME280;39535;52.192;9.886;2022-12-07T05:48:48;100069.63;;;2.84;100.00
13952;BME280;39535;52.192;9.886;2022-12-07T05:51:14;100052.41;;;2.78;100.00
13952;BME280;39535;52.192;9.886;2022-12-07T05:53:41;100026.69;;;2.89;100.00
13952;BME280;39535;52.192;9.886;2022-12-07T05:56:07;100034.38;;;2.81;100.00
13952;BME280;39535;52.192;9.886;2022-12-07T05:58:34;100030.09;;;2.82;100.00
13952;BME280;39535;52.192;9.886;2022-12-07T06:01:15;100042.13;;;2.87;100.00
13952;BME280;39535;52.192;9.886;2022-12-07T06:03:42;100042.16;;;2.90;100.00
13952;BME280;39535;52.192;9.886;2022-12-07T06:06:09;100053.34;;;2.88;100.00
13952;BME280;39535;52.192;9.886;2022-12-07T06:08:35;100047.34;;;2.92;100.00
13952;BME280;39535;52.192;9.886;2022-12-07T06:11:01;100054.19;;;2.88;100.00
13952;BME280;39535;52.192;9.886;2022-12-07T06:13:46;100048.19;;;2.88;100.00
13952;BME280;39535;52.192;9.886;2022-12-07T06:16:12;100048.22;;;2.94;100.00
13952;BME280;39535;52.192;9.886;2022-12-07T06:18:40;100061.09;;;2.97;100.00
13952;BME280;39535;52.192;9.886;2022-12-07T06:21:06;100068.03;;;3.04;100.00
13952;BME280;39535;52.192;9.886;2022-12-07T06:23:33;100080.94;;;3.06;100.00
13952;BME280;39535;52.192;9.886;2022-12-07T06:25:59;100092.91;;;2.99;100.00
13952;BME280;39535;52.192;9.886;2022-12-07T06:28:26;100094.66;;;3.02;100.00
13952;BME280;39535;52.192;9.886;2022-12-07T06:30:56;100090.41;;;3.10;100.00
13952;BME280;39535;52.192;9.886;2022-12-07T06:33:23;100089.53;;;3.06;100.00
13952;BME280;39535;52.192;9.886;2022-12-07T06:35:51;100096.41;;;3.06;100.00
13952;BME280;39535;52.192;9.886;2022-12-07T06:38:17;100103.28;;;3.04;100.00
13952;BME280;39535;52.192;9.886;2022-12-07T06:40:49;100095.50;;;2.99;100.00
13952;BME280;39535;52.192;9.886;2022-12-07T06:43:16;100096.34;;;3.01;100.00
13952;BME280;39535;52.192;9.886;2022-12-07T06:45:42;100096.41;;;3.09;100.00
13952;BME280;39535;52.192;9.886;2022-12-07T06:48:09;100099.00;;;3.07;100.00
13952;BME280;39535;52.192;9.886;2022-12-07T06:50:35;100097.28;;;3.11;100.00
13952;BME280;39535;52.192;9.886;2022-12-07T06:53:03;100099.03;;;3.12;100.00
13952;BME280;39535;52.192;9.886;2022-12-07T06:55:29;100097.25;;;3.06;100.00
13952;BME280;39535;52.192;9.886;2022-12-07T06:57:56;100086.91;;;3.03;100.00
13952;BME280;39535;52.192;9.886;2022-12-07T07:00:23;100087.84;;;3.13;100.00
13952;BME280;39535;52.192;9.886;2022-12-07T07:02:49;100088.69;;;3.07;100.00
13952;BME280;39535;52.192;9.886;2022-12-07T07:05:16;100093.88;;;3.13;100.00
13952;BME280;39535;52.192;9.886;2022-12-07T07:07:42;100089.56;;;3.12;100.00
13952;BME280;39535;52.192;9.886;2022-12-07T07:10:10;100099.06;;;3.20;100.00
13952;BME280;39535;52.192;9.886;2022-12-07T07:12:37;100104.19;;;3.15;100.00
13952;BME280;39535;52.192;9.886;2022-12-07T07:15:04;100099.91;;;3.18;100.00
13952;BME280;39535;52.192;9.886;2022-12-07T07:17:30;100114.53;;;3.23;100.00
13952;BME280;39535;52.192;9.886;2022-12-07T07:19:57;100119.72;;;3.26;100.00
13952;BME280;39535;52.192;9.886;2022-12-07T07:22:23;100131.72;;;3.16;100.00
13952;BME280;39535;52.192;9.886;2022-12-07T07:24:50;100126.50;;;3.13;100.00
13952;BME280;39535;52.192;9.886;2022-12-07T07:27:17;100135.09;;;3.10;100.00
13952;BME280;39535;52.192;9.886;2022-12-07T07:29:44;100141.94;;;3.05;100.00
13952;BME280;39535;52.192;9.886;2022-12-07T07:32:10;100132.56;;;3.16;100.00
13952;BME280;39535;52.192;9.886;2022-12-07T07:34:37;100139.47;;;3.21;100.00
13952;BME280;39535;52.192;9.886;2022-12-07T07:37:03;100138.56;;;3.14;100.00
13952;BME280;39535;52.192;9.886;2022-12-07T07:39:30;100147.16;;;3.14;100.00
13952;BME280;39535;52.192;9.886;2022-12-07T07:41:56;100160.81;;;3.00;100.00
13952;BME280;39535;52.192;9.886;2022-12-07T07:44:24;100155.66;;;3.00;100.00
13952;BME280;39535;52.192;9.886;2022-12-07T07:46:51;100154.00;;;3.11;100.00
13952;BME280;39535;52.192;9.886;2022-12-07T07:49:17;100173.72;;;3.03;100.00
13952;BME280;39535;52.192;9.886;2022-12-07T07:51:43;100177.19;;;3.05;100.00
13952;BME280;39535;52.192;9.886;2022-12-07T07:54:10;100171.94;;;2.94;100.00
13952;BME280;39535;52.192;9.886;2022-12-07T07:56:36;100173.63;;;2.89;100.00
13952;BME280;39535;52.192;9.886;2022-12-07T07:59:03;100166.03;;;3.06;100.00
13952;BME280;39535;52.192;9.886;2022-12-07T08:01:31;100172.00;;;3.03;100.00
13952;BME280;39535;52.192;9.886;2022-12-07T08:03:57;100169.41;;;2.95;100.00
13952;BME280;39535;52.192;9.886;2022-12-07T08:06:23;100174.56;;;2.98;100.00
13952;BME280;39535;52.192;9.886;2022-12-07T08:08:50;100175.34;;;2.91;100.00
13952;BME280;39535;52.192;9.886;2022-12-07T08:11:16;100166.81;;;2.95;100.00
13952;BME280;39535;52.192;9.886;2022-12-07T08:13:45;100153.91;;;2.94;100.00
13952;BME280;39535;52.192;9.886;2022-12-07T08:16:12;100155.63;;;2.96;100.00
13952;BME280;39535;52.192;9.886;2022-12-07T08:18:41;100159.13;;;3.02;100.00
13952;BME280;39535;52.192;9.886;2022-12-07T08:21:11;100168.53;;;2.96;100.00
13952;BME280;39535;52.192;9.886;2022-12-07T08:23:38;100160.75;;;2.92;100.00
13952;BME280;39535;52.192;9.886;2022-12-07T08:26:06;100163.38;;;2.96;100.00
13952;BME280;39535;52.192;9.886;2022-12-07T08:28:33;100167.78;;;3.10;100.00
13952;BME280;39535;52.192;9.886;2022-12-07T08:30:59;100172.91;;;3.08;100.00
13952;BME280;39535;52.192;9.886;2022-12-07T08:33:26;100163.44;;;3.09;100.00
13952;BME280;39535;52.192;9.886;2022-12-07T08:35:54;100155.81;;;3.23;100.00
13952;BME280;39535;52.192;9.886;2022-12-07T08:38:21;100157.53;;;3.24;100.00
13952;BME280;39535;52.192;9.886;2022-12-07T08:40:53;100155.78;;;3.18;100.00
13952;BME280;39535;52.192;9.886;2022-12-07T08:43:20;100147.16;;;3.11;100.00
13952;BME280;39535;52.192;9.886;2022-12-07T08:45:47;100142.91;;;3.20;100.00
13952;BME280;39535;52.192;9.886;2022-12-07T08:48:15;100147.22;;;3.22;100.00
13952;BME280;39535;52.192;9.886;2022-12-07T08:50:47;100150.75;;;3.40;100.00
13952;BME280;39535;52.192;9.886;2022-12-07T08:53:15;100155.09;;;3.47;100.00
13952;BME280;39535;52.192;9.886;2022-12-07T08:55:43;100177.41;;;3.38;100.00
13952;BME280;39535;52.192;9.886;2022-12-07T08:58:10;100187.78;;;3.43;100.00
13952;BME280;39535;52.192;9.886;2022-12-07T09:00:37;100195.44;;;3.32;100.00
13952;BME280;39535;52.192;9.886;2022-12-07T09:03:03;100194.63;;;3.40;100.00
13952;BME280;39535;52.192;9.886;2022-12-07T09:05:32;100191.19;;;3.44;100.00
13952;BME280;39535;52.192;9.886;2022-12-07T09:08:00;100196.34;;;3.41;100.00
13952;BME280;39535;52.192;9.886;2022-12-07T09:10:28;100203.31;;;3.54;100.00
13952;BME280;39535;52.192;9.886;2022-12-07T09:12:55;100207.66;;;3.66;100.00
13952;BME280;39535;52.192;9.886;2022-12-07T09:15:25;100210.31;;;3.75;100.00
13952;BME280;39535;52.192;9.886;2022-12-07T09:17:52;100230.03;;;3.68;100.00
13952;BME280;39535;52.192;9.886;2022-12-07T09:20:19;100235.19;;;3.64;100.00
13952;BME280;39535;52.192;9.886;2022-12-07T09:22:48;100240.38;;;3.65;100.00
13952;BME280;39535;52.192;9.886;2022-12-07T09:25:14;100247.25;;;3.66;100.00
13952;BME280;39535;52.192;9.886;2022-12-07T09:27:42;100244.69;;;3.69;100.00
13952;BME280;39535;52.192;9.886;2022-12-07T09:30:09;100242.94;;;3.68;100.00
13952;BME280;39535;52.192;9.886;2022-12-07T09:32:35;100266.28;;;3.81;100.00
13952;BME280;39535;52.192;9.886;2022-12-07T09:35:02;100279.13;;;3.76;100.00
13952;BME280;39535;52.192;9.886;2022-12-07T09:37:28;100287.75;;;3.76;100.00
13952;BME280;39535;52.192;9.886;2022-12-07T09:39:56;100288.56;;;3.69;99.70
13952;BME280;39535;52.192;9.886;2022-12-07T09:42:28;100319.59;;;3.77;98.63
13952;BME280;39535;52.192;9.886;2022-12-07T09:44:58;100304.94;;;3.74;99.36
13952;BME280;39535;52.192;9.886;2022-12-07T09:47:25;100300.56;;;3.64;99.00
13952;BME280;39535;52.192;9.886;2022-12-07T09:49:54;100288.50;;;3.57;100.00
13952;BME280;39535;52.192;9.886;2022-12-07T09:52:27;100263.53;;;3.56;100.00
13952;BME280;39535;52.192;9.886;2022-12-07T09:54:54;100259.25;;;3.60;100.00
13952;BME280;39535;52.192;9.886;2022-12-07T09:57:26;100268.66;;;3.51;99.58
13952;BME280;39535;52.192;9.886;2022-12-07T09:59:57;100274.66;;;3.47;99.71
13952;BME280;39535;52.192;9.886;2022-12-07T10:02:35;100266.88;;;3.44;100.00
13952;BME280;39535;52.192;9.886;2022-12-07T10:05:04;100263.59;;;3.65;100.00
13952;BME280;39535;52.192;9.886;2022-12-07T10:07:31;100262.69;;;3.58;100.00
13952;BME280;39535;52.192;9.886;2022-12-07T10:09:57;100248.09;;;3.64;100.00
13952;BME280;39535;52.192;9.886;2022-12-07T10:12:24;100235.19;;;3.62;100.00
13952;BME280;39535;52.192;9.886;2022-12-07T10:14:55;100231.75;;;3.65;100.00
13952;BME280;39535;52.192;9.886;2022-12-07T10:17:31;100234.31;;;3.65;100.00
13952;BME280;39535;52.192;9.886;2022-12-07T10:20:20;100237.84;;;3.76;100.00
13952;BME280;39535;52.192;9.886;2022-12-07T10:22:55;100239.53;;;3.72;100.00
13952;BME280;39535;52.192;9.886;2022-12-07T10:25:24;100251.59;;;3.73;100.00
13952;BME280;39535;52.192;9.886;2022-12-07T10:27:58;100266.19;;;3.70;99.78
13952;BME280;39535;52.192;9.886;2022-12-07T10:30:26;100272.97;;;3.54;99.60
13952;BME280;39535;52.192;9.886;2022-12-07T10:32:53;100284.97;;;3.49;99.29
13952;BME280;39535;52.192;9.886;2022-12-07T10:35:23;100279.09;;;3.67;99.45
13952;BME280;39535;52.192;9.886;2022-12-07T10:37:51;100286.78;;;3.57;98.58
13952;BME280;39535;52.192;9.886;2022-12-07T10:40:30;100275.53;;;3.52;99.25
13952;BME280;39535;52.192;9.886;2022-12-07T10:43:12;100268.78;;;3.67;99.18
13952;BME280;39535;52.192;9.886;2022-12-07T10:48:46;100269.59;;;3.61;99.74
13952;BME280;39535;52.192;9.886;2022-12-07T10:51:24;100240.41;;;3.76;100.00
13952;BME280;39535;52.192;9.886;2022-12-07T10:54:00;100224.06;;;3.71;100.00
13952;BME280;39535;52.192;9.886;2022-12-07T10:59:30;100245.59;;;3.73;99.80
13952;BME280;39535;52.192;9.886;2022-12-07T11:02:20;100256.75;;;3.76;99.15
13952;BME280;39535;52.192;9.886;2022-12-07T11:05:01;100255.06;;;3.80;99.21
13952;BME280;39535;52.192;9.886;2022-12-07T11:07:42;100253.31;;;3.71;98.87
13952;BME280;39535;52.192;9.886;2022-12-07T11:10:16;100247.28;;;3.74;99.61
13952;BME280;39535;52.192;9.886;2022-12-07T11:13:00;100236.13;;;3.80;99.08
13952;BME280;39535;52.192;9.886;2022-12-07T11:15:33;100230.13;;;3.82;99.35
13952;BME280;39535;52.192;9.886;2022-12-07T11:18:06;100236.97;;;3.78;98.88
13952;BME280;39535;52.192;9.886;2022-12-07T11:20:43;100251.69;;;3.87;98.38
13952;BME280;39535;52.192;9.886;2022-12-07T11:23:18;100265.47;;;3.91;97.60
13952;BME280;39535;52.192;9.886;2022-12-07T11:25:53;100264.66;;;3.96;97.34
13952;BME280;39535;52.192;9.886;2022-12-07T11:28:31;100291.38;;;4.09;97.24
13952;BME280;39535;52.192;9.886;2022-12-07T11:31:11;100299.09;;;4.06;96.91
13952;BME280;39535;52.192;9.886;2022-12-07T11:33:41;100298.25;;;4.07;96.64
13952;BME280;39535;52.192;9.886;2022-12-07T11:36:23;100294.88;;;4.14;96.99
13952;BME280;39535;52.192;9.886;2022-12-07T11:38:58;100275.94;;;4.18;96.99
13952;BME280;39535;52.192;9.886;2022-12-07T11:41:30;100282.72;;;4.04;97.17
13952;BME280;39535;52.192;9.886;2022-12-07T11:44:00;100298.28;;;4.09;95.67
13952;BME280;39535;52.192;9.886;2022-12-07T11:46:33;100306.03;;;4.10;96.19
13952;BME280;39535;52.192;9.886;2022-12-07T11:49:09;100309.41;;;4.00;96.12
13952;BME280;39535;52.192;9.886;2022-12-07T11:51:40;100301.72;;;4.09;95.97
13952;BME280;39535;52.192;9.886;2022-12-07T11:54:13;100277.66;;;4.16;96.33
13952;BME280;39535;52.192;9.886;2022-12-07T11:56:42;100258.72;;;4.21;96.61
13952;BME280;39535;52.192;9.886;2022-12-07T11:59:13;100267.31;;;4.20;95.63
13952;BME280;39535;52.192;9.886;2022-12-07T12:01:50;100272.50;;;4.26;95.71
13952;BME280;39535;52.192;9.886;2022-12-07T12:04:32;100286.22;;;4.11;95.40
13952;BME280;39535;52.192;9.886;2022-12-07T12:07:02;100257.81;;;4.15;96.90
13952;BME280;39535;52.192;9.886;2022-12-07T12:09:34;100255.22;;;4.14;96.34
13952;BME280;39535;52.192;9.886;2022-12-07T12:12:16;100256.13;;;4.17;96.50
13952;BME280;39535;52.192;9.886;2022-12-07T12:14:59;100249.25;;;4.27;96.74
13952;BME280;39535;52.192;9.886;2022-12-07T12:17:47;100281.09;;;4.22;95.33
13952;BME280;39535;52.192;9.886;2022-12-07T12:20:21;100281.94;;;4.22;95.47
13952;BME280;39535;52.192;9.886;2022-12-07T12:22:54;100276.78;;;4.17;94.97
13952;BME280;39535;52.192;9.886;2022-12-07T12:25:25;100337.97;;;4.25;92.22
13952;BME280;39535;52.192;9.886;2022-12-07T12:27:55;100382.69;;;4.16;91.47
13952;BME280;39535;52.192;9.886;2022-12-07T12:30:27;100399.94;;;4.18;91.11
13952;BME280;39535;52.192;9.886;2022-12-07T12:33:02;100407.66;;;4.15;91.54
13952;BME280;39535;52.192;9.886;2022-12-07T12:35:32;100393.91;;;4.16;91.61
13952;BME280;39535;52.192;9.886;2022-12-07T12:38:34;100393.00;;;4.13;91.60
13952;BME280;39535;52.192;9.886;2022-12-07T12:47:43;100353.56;;;4.45;92.69
13952;BME280;39535;52.192;9.886;2022-12-07T12:50:23;100351.03;;;4.54;91.84
13952;BME280;39535;52.192;9.886;2022-12-07T12:52:56;100369.94;;;4.51;92.00
13952;BME280;39535;52.192;9.886;2022-12-07T12:55:53;100336.41;;;4.62;92.91
13952;BME280;39535;52.192;9.886;2022-12-07T12:58:34;100348.41;;;4.49;91.87
13952;BME280;39535;52.192;9.886;2022-12-07T13:04:30;100323.50;;;4.62;92.35
13952;BME280;39535;52.192;9.886;2022-12-07T13:07:00;100338.06;;;4.46;91.76
13952;BME280;39535;52.192;9.886;2022-12-07T13:09:28;100350.09;;;4.41;91.30
13952;BME280;39535;52.192;9.886;2022-12-07T13:12:01;100332.88;;;4.42;91.60
13952;BME280;39535;52.192;9.886;2022-12-07T13:14:57;100337.19;;;4.38;91.90
13952;BME280;39535;52.192;9.886;2022-12-07T13:17:55;100339.78;;;4.47;91.21
13952;BME280;39535;52.192;9.886;2022-12-07T13:20:45;100350.09;;;4.43;91.21
13952;BME280;39535;52.192;9.886;2022-12-07T13:23:13;100362.16;;;4.39;90.60
13952;BME280;39535;52.192;9.886;2022-12-07T13:25:48;100390.66;;;4.54;89.33
13952;BME280;39535;52.192;9.886;2022-12-07T13:28:19;100407.00;;;4.52;89.05